Time;durP1;ratioP1;P1;durP2;ratioP2;P2;SDS_P1;SDS_P2;PMS_P1;PMS_P2;Temp;Humidity;BMP_temperature;BMP_pressure;BME280_temperature;BME280_humidity;BME280_pressure;Samples;Min_cycle;Max_cycle;Signal;HPM_P1;HPM_P2
2020/12/22 00:01:14;;;;;;;34.78;17.77;;;11.50;81.30;;;;;;5025762;28;82980;-70
2020/12/22 00:03:40;;;;;;;31.60;16.30;;;11.40;81.40;;;;;;5007510;28;85941;-70
2020/12/22 00:06:06;;;;;;;31.50;15.90;;;11.40;81.40;;;;;;5025500;28;82853;-70
2020/12/22 00:08:32;;;;;;;31.45;16.17;;;11.40;81.50;;;;;;5007514;28;86474;-70
2020/12/22 00:10:58;;;;;;;30.17;15.65;;;11.40;81.60;;;;;;5025560;28;83052;-71
2020/12/22 00:13:24;;;;;;;26.15;13.38;;;11.40;81.50;;;;;;5006429;28;86644;-72
2020/12/22 00:15:50;;;;;;;24.45;12.77;;;11.40;81.50;;;;;;5007410;28;83168;-72
2020/12/22 00:18:16;;;;;;;25.60;14.27;;;11.40;81.30;;;;;;5024920;28;85327;-73
2020/12/22 00:20:43;;;;;;;27.00;13.95;;;11.40;81.20;;;;;;5007859;28;82695;-73
2020/12/22 00:23:09;;;;;;;28.67;14.13;;;11.40;81.20;;;;;;5007247;28;85956;-74
2020/12/22 00:25:46;;;;;;;23.20;13.15;;;11.40;81.10;;;;;;5025192;28;82626;-71
2020/12/22 00:28:15;;;;;;;22.70;12.52;;;11.40;80.90;;;;;;5025944;28;83086;-72
2020/12/22 00:30:42;;;;;;;23.55;12.43;;;11.40;80.80;;;;;;5025333;28;82712;-78
2020/12/22 00:33:08;;;;;;;31.55;12.93;;;11.40;80.80;;;;;;5025828;28;83401;-78
2020/12/22 00:35:34;;;;;;;25.60;12.32;;;11.40;80.70;;;;;;5024970;28;82846;-77
2020/12/22 00:38:00;;;;;;;21.50;11.98;;;11.40;80.70;;;;;;5007015;28;85299;-80
2020/12/22 00:40:27;;;;;;;22.35;12.43;;;11.40;80.60;;;;;;5025264;28;82458;-73
2020/12/22 00:42:53;;;;;;;25.40;12.57;;;11.40;80.50;;;;;;5006448;28;85765;-74
2020/12/22 00:45:19;;;;;;;21.35;11.98;;;11.50;80.50;;;;;;5025205;28;82775;-79
2020/12/22 00:47:45;;;;;;;22.95;13.32;;;11.40;80.40;;;;;;5006205;28;85440;-74
2020/12/22 00:50:11;;;;;;;22.63;11.63;;;11.40;80.40;;;;;;5025217;28;83086;-78
2020/12/22 00:52:37;;;;;;;24.63;13.23;;;11.40;80.40;;;;;;5006543;28;86600;-77
2020/12/22 00:55:04;;;;;;;23.90;13.32;;;11.40;80.40;;;;;;5025040;28;82642;-78
2020/12/22 00:57:29;;;;;;;26.30;13.10;;;11.50;80.40;;;;;;5024453;28;83229;-75
2020/12/22 00:59:55;;;;;;;22.20;12.85;;;11.50;80.40;;;;;;5025187;28;82598;-82
2020/12/22 01:02:21;;;;;;;22.27;11.07;;;11.50;80.40;;;;;;5027633;28;83201;-86
2020/12/22 01:04:49;;;;;;;22.05;11.55;;;11.50;80.30;;;;;;5026509;28;83373;-83
2020/12/22 01:07:16;;;;;;;22.20;12.90;;;11.50;80.40;;;;;;5026061;28;83097;-87
2020/12/22 01:09:42;;;;;;;22.15;11.70;;;11.50;80.30;;;;;;5024721;28;83474;-78
2020/12/22 01:12:08;;;;;;;17.88;10.45;;;11.50;80.20;;;;;;5024657;28;83301;-76
2020/12/22 01:14:33;;;;;;;21.67;12.45;;;11.50;80.10;;;;;;5024958;28;82820;-75
2020/12/22 01:16:59;;;;;;;18.60;11.10;;;11.40;80.10;;;;;;5006168;28;84587;-80
2020/12/22 01:19:25;;;;;;;20.85;11.10;;;11.50;80.10;;;;;;5006121;28;85877;-79
2020/12/22 01:21:54;;;;;;;19.88;11.15;;;11.40;80.00;;;;;;5024260;28;83283;-79
2020/12/22 01:24:20;;;;;;;17.63;8.93;;;11.40;80.10;;;;;;5005418;28;84661;-85
2020/12/22 01:26:48;;;;;;;19.83;10.13;;;11.40;80.10;;;;;;5027031;28;81130;-78
2020/12/22 01:29:14;;;;;;;19.30;9.98;;;11.40;80.10;;;;;;5024727;28;82432;-86
2020/12/22 01:31:39;;;;;;;17.05;9.40;;;11.40;80.00;;;;;;5024770;28;83730;-79
2020/12/22 01:34:05;;;;;;;19.35;10.35;;;11.40;79.90;;;;;;5027069;28;82762;-75
2020/12/22 01:36:32;;;;;;;18.13;9.95;;;11.40;79.80;;;;;;5024342;28;83448;-77
2020/12/22 01:38:57;;;;;;;14.80;9.15;;;11.40;79.80;;;;;;5008568;28;84602;-76
2020/12/22 01:41:23;;;;;;;14.98;8.38;;;11.40;79.90;;;;;;5026640;28;80573;-69
2020/12/22 01:44:10;;;;;;;15.20;8.23;;;11.40;79.90;;;;;;5026698;28;80021;-70
2020/12/22 01:46:49;;;;;;;15.68;8.00;;;11.40;79.70;;;;;;5008379;28;83806;-75
2020/12/22 01:49:25;;;;;;;15.48;7.93;;;11.40;79.80;;;;;;5026481;28;80257;-75
2020/12/22 01:51:53;;;;;;;17.10;8.70;;;11.40;79.90;;;;;;5007774;28;81025;-72
2020/12/22 01:54:20;;;;;;;19.67;9.55;;;11.40;79.80;;;;;;5008029;28;82780;-74
2020/12/22 01:56:46;;;;;;;12.32;7.50;;;11.40;79.80;;;;;;5025836;28;80406;-75
2020/12/22 01:59:13;;;;;;;15.00;7.93;;;11.40;79.80;;;;;;5026664;28;80707;-73
2020/12/22 02:01:39;;;;;;;17.00;8.00;;;11.30;79.80;;;;;;5026498;28;80040;-78
2020/12/22 02:04:07;;;;;;;15.20;7.82;;;11.40;79.80;;;;;;5026467;28;80119;-77
2020/12/22 02:06:34;;;;;;;15.73;9.20;;;11.40;79.70;;;;;;5008042;28;82373;-79
2020/12/22 02:09:01;;;;;;;16.90;9.55;;;11.30;79.60;;;;;;5026207;28;80269;-77
2020/12/22 02:11:28;;;;;;;17.00;9.45;;;11.30;79.60;;;;;;5026110;28;81225;-76
2020/12/22 02:13:55;;;;;;;17.08;8.82;;;11.30;79.60;;;;;;5026258;28;79875;-76
2020/12/22 02:16:21;;;;;;;16.27;8.90;;;11.30;79.60;;;;;;5026377;28;81083;-74
2020/12/22 02:18:49;;;;;;;15.55;7.95;;;11.30;79.50;;;;;;5007816;28;80501;-75
2020/12/22 02:21:15;;;;;;;14.38;8.23;;;11.30;79.50;;;;;;5026109;28;81022;-75
2020/12/22 02:23:40;;;;;;;16.10;9.05;;;11.30;79.50;;;;;;5026382;28;80823;-78
2020/12/22 02:26:07;;;;;;;15.30;8.00;;;11.30;79.40;;;;;;5025662;28;80651;-79
2020/12/22 02:28:35;;;;;;;17.60;8.98;;;11.30;79.20;;;;;;5026118;28;80228;-70
2020/12/22 02:31:02;;;;;;;14.80;8.63;;;11.30;79.10;;;;;;5025568;28;80497;-79
2020/12/22 02:33:29;;;;;;;15.48;8.50;;;11.30;79.00;;;;;;5026050;28;80383;-73
2020/12/22 02:35:55;;;;;;;15.50;8.45;;;11.30;79.00;;;;;;5026426;28;80825;-72
2020/12/22 02:38:22;;;;;;;17.17;8.85;;;11.30;78.90;;;;;;5029955;28;79793;-74
2020/12/22 02:40:48;;;;;;;17.80;9.00;;;11.20;79.00;;;;;;5029742;28;81269;-73
2020/12/22 02:43:14;;;;;;;18.48;8.45;;;11.30;79.00;;;;;;5010849;28;82603;-73
2020/12/22 02:45:44;;;;;;;17.70;8.55;;;11.20;78.90;;;;;;5029370;28;80618;-81
2020/12/22 02:48:11;;;;;;;17.85;8.50;;;11.20;79.00;;;;;;5010841;28;83359;-84
2020/12/22 02:50:38;;;;;;;16.58;9.10;;;11.20;79.10;;;;;;5029512;28;80481;-79
2020/12/22 02:53:05;;;;;;;17.80;8.98;;;11.20;79.20;;;;;;5029242;28;80185;-78
2020/12/22 02:55:31;;;;;;;17.95;9.52;;;11.20;79.20;;;;;;5029126;28;80867;-77
2020/12/22 02:57:57;;;;;;;16.42;9.45;;;11.20;79.20;;;;;;5029234;28;80840;-77
2020/12/22 03:00:24;;;;;;;17.98;8.95;;;11.20;79.40;;;;;;5028847;28;80911;-77
2020/12/22 03:02:50;;;;;;;16.35;8.90;;;11.20;79.30;;;;;;5029044;28;81579;-80
2020/12/22 03:05:16;;;;;;;20.45;9.65;;;11.20;79.30;;;;;;5029062;28;81140;-74
2020/12/22 03:07:42;;;;;;;20.33;10.77;;;11.20;79.30;;;;;;5029090;28;80100;-78
2020/12/22 03:10:09;;;;;;;21.90;9.98;;;11.20;79.50;;;;;;5026235;28;83021;-78
2020/12/22 03:12:35;;;;;;;20.20;9.85;;;11.20;79.40;;;;;;5026166;28;83486;-76
2020/12/22 03:15:04;;;;;;;20.20;11.15;;;11.20;79.40;;;;;;5028964;28;80452;-77
2020/12/22 03:17:29;;;;;;;20.65;10.20;;;11.20;79.40;;;;;;5007595;28;83034;-76
2020/12/22 03:19:55;;;;;;;20.55;10.68;;;11.20;79.50;;;;;;5026378;28;83386;-76
2020/12/22 03:22:21;;;;;;;18.58;10.10;;;11.20;79.50;;;;;;5007934;28;83067;-81
2020/12/22 03:24:47;;;;;;;22.05;10.90;;;11.20;79.60;;;;;;5026302;28;83003;-81
2020/12/22 03:27:13;;;;;;;18.30;9.07;;;11.20;79.50;;;;;;5026280;28;82853;-78
2020/12/22 03:29:38;;;;;;;20.67;10.10;;;11.20;79.50;;;;;;5010369;28;80775;-77
2020/12/22 03:32:04;;;;;;;17.17;9.30;;;11.20;79.40;;;;;;5026386;28;82590;-80
2020/12/22 03:34:30;;;;;;;18.13;10.35;;;11.20;79.40;;;;;;5028784;28;80533;-77
2020/12/22 03:36:56;;;;;;;17.23;9.45;;;11.10;79.50;;;;;;5026198;28;82482;-79
2020/12/22 03:39:21;;;;;;;20.92;10.88;;;11.20;79.50;;;;;;5028702;28;79750;-75
2020/12/22 03:41:47;;;;;;;21.52;10.10;;;11.10;79.60;;;;;;5025852;28;82617;-76
2020/12/22 03:44:13;;;;;;;21.40;10.40;;;11.10;79.70;;;;;;5007587;28;86141;-80
2020/12/22 03:46:40;;;;;;;21.05;11.52;;;11.10;79.90;;;;;;5025553;28;82487;-74
2020/12/22 03:49:06;;;;;;;18.27;9.50;;;11.10;79.90;;;;;;5025016;28;82953;-86
2020/12/22 03:51:32;;;;;;;19.45;10.77;;;11.10;79.90;;;;;;5029144;28;83314;-87
2020/12/22 03:53:57;;;;;;;18.13;9.98;;;11.10;80.00;;;;;;5027934;28;83382;-80
2020/12/22 03:56:25;;;;;;;20.65;10.55;;;11.20;79.90;;;;;;5006957;28;84814;-82
2020/12/22 03:58:51;;;;;;;20.98;10.05;;;11.10;79.90;;;;;;5025893;28;83295;-82
2020/12/22 04:01:17;;;;;;;21.85;10.10;;;11.10;80.00;;;;;;5025744;28;82991;-82
2020/12/22 04:03:43;;;;;;;18.90;9.82;;;11.10;79.90;;;;;;5006962;28;86256;-80
2020/12/22 04:06:09;;;;;;;19.65;9.35;;;11.10;79.80;;;;;;5010190;28;84458;-81
2020/12/22 04:08:34;;;;;;;18.50;10.15;;;11.10;79.80;;;;;;5028266;28;80492;-82
2020/12/22 04:11:01;;;;;;;17.80;9.50;;;11.10;79.70;;;;;;5025538;28;82508;-82
2020/12/22 04:13:26;;;;;;;19.60;9.02;;;11.10;79.70;;;;;;5028048;28;81131;-85
2020/12/22 04:15:52;;;;;;;19.95;9.82;;;11.00;79.80;;;;;;5010616;28;81585;-78
2020/12/22 04:18:18;;;;;;;20.63;10.18;;;11.00;79.90;;;;;;5010875;28;82350;-79
2020/12/22 04:20:43;;;;;;;17.95;9.77;;;11.00;79.90;;;;;;5006672;28;82782;-78
2020/12/22 04:23:09;;;;;;;17.45;10.07;;;11.00;80.00;;;;;;5009282;28;80967;-85
2020/12/22 04:25:35;;;;;;;20.13;10.80;;;11.00;80.00;;;;;;5006667;28;83264;-77
2020/12/22 04:28:01;;;;;;;21.55;11.07;;;11.00;80.00;;;;;;5025188;28;83141;-81
2020/12/22 04:30:27;;;;;;;18.83;9.70;;;11.00;79.80;;;;;;5024853;28;82859;-76
2020/12/22 04:32:52;;;;;;;22.23;10.30;;;11.00;79.70;;;;;;5027561;28;80680;-75
2020/12/22 04:35:18;;;;;;;18.50;9.27;;;11.00;79.70;;;;;;5024890;28;82429;-77
2020/12/22 04:37:44;;;;;;;17.55;8.88;;;11.00;79.70;;;;;;5027385;28;80871;-78
2020/12/22 04:40:10;;;;;;;17.25;8.85;;;10.90;79.70;;;;;;5009230;28;83558;-88
2020/12/22 04:42:36;;;;;;;19.38;9.35;;;11.00;79.80;;;;;;5009726;28;82608;-86
2020/12/22 04:45:02;;;;;;;18.92;8.80;;;11.00;79.70;;;;;;5010004;28;80440;-70
2020/12/22 04:47:30;;;;;;;16.35;8.32;;;10.90;79.70;;;;;;5009484;28;80980;-71
2020/12/22 04:50:01;;;;;;;18.30;8.65;;;10.90;79.80;;;;;;5008995;28;79869;-72
2020/12/22 04:52:29;;;;;;;14.07;8.18;;;10.90;80.00;;;;;;5027651;28;80509;-70
2020/12/22 04:54:55;;;;;;;13.48;6.32;;;10.90;80.10;;;;;;5027078;28;80228;-71
2020/12/22 04:57:30;;;;;;;16.42;7.20;;;10.90;80.10;;;;;;5026925;28;81128;-78
2020/12/22 04:59:57;;;;;;;15.32;7.38;;;10.90;80.20;;;;;;5026835;28;80314;-79
2020/12/22 05:02:27;;;;;;;11.82;5.72;;;10.90;80.10;;;;;;5027210;28;80808;-80
2020/12/22 05:04:52;;;;;;;11.73;6.75;;;10.90;80.10;;;;;;5009031;28;81460;-76
2020/12/22 05:07:18;;;;;;;12.27;5.70;;;10.90;80.00;;;;;;5027133;28;80020;-77
2020/12/22 05:09:45;;;;;;;10.68;5.80;;;10.80;79.80;;;;;;5027102;28;79962;-78
2020/12/22 05:12:11;;;;;;;13.77;7.40;;;10.80;79.80;;;;;;5007947;28;82906;-76
2020/12/22 05:14:37;;;;;;;13.32;6.95;;;10.80;79.80;;;;;;5027247;28;80236;-78
2020/12/22 05:17:03;;;;;;;13.65;6.70;;;10.70;79.70;;;;;;5008645;28;82096;-76
2020/12/22 05:19:34;;;;;;;12.73;6.18;;;10.70;79.90;;;;;;5008867;28;83633;-74
2020/12/22 05:22:03;;;;;;;16.10;6.22;;;10.70;79.80;;;;;;5008280;28;80821;-76
2020/12/22 05:24:29;;;;;;;13.10;7.57;;;10.70;79.90;;;;;;5008265;28;80555;-76
2020/12/22 05:26:56;;;;;;;15.38;8.55;;;10.70;79.90;;;;;;5008648;28;83011;-78
2020/12/22 05:29:24;;;;;;;14.23;6.57;;;10.70;79.70;;;;;;5026822;28;80930;-71
2020/12/22 05:31:51;;;;;;;13.02;6.70;;;10.70;79.90;;;;;;5026743;28;80754;-75
2020/12/22 05:34:20;;;;;;;14.48;7.20;;;10.70;79.90;;;;;;5007623;28;82399;-75
2020/12/22 05:36:47;;;;;;;14.68;7.80;;;10.70;79.80;;;;;;5008040;28;83037;-74
2020/12/22 05:39:17;;;;;;;13.32;7.15;;;10.70;79.80;;;;;;5026758;28;80520;-77
2020/12/22 05:41:43;;;;;;;16.27;8.18;;;10.70;79.80;;;;;;5026702;28;80624;-71
2020/12/22 05:44:10;;;;;;;13.88;6.63;;;10.70;79.70;;;;;;5026961;28;80306;-74
2020/12/22 05:46:38;;;;;;;12.57;6.03;;;10.70;79.80;;;;;;5008268;28;81913;-75
2020/12/22 05:49:09;;;;;;;14.77;7.18;;;10.70;79.80;;;;;;5008333;28;80880;-74
2020/12/22 05:51:35;;;;;;;15.30;7.93;;;10.70;79.60;;;;;;5026340;28;80011;-74
2020/12/22 05:54:06;;;;;;;15.23;7.97;;;10.70;79.60;;;;;;5008335;28;81692;-72
2020/12/22 05:56:33;;;;;;;14.18;7.50;;;10.70;79.60;;;;;;5025960;28;81041;-73
2020/12/22 05:58:59;;;;;;;13.75;7.28;;;10.70;79.60;;;;;;5008056;28;83187;-73
2020/12/22 06:01:33;;;;;;;14.93;6.10;;;10.60;79.80;;;;;;5008267;28;80273;-72
2020/12/22 06:04:01;;;;;;;14.00;7.68;;;10.70;79.90;;;;;;5008110;28;80102;-70
2020/12/22 06:06:29;;;;;;;16.45;7.97;;;10.60;79.70;;;;;;5026563;28;80574;-74
2020/12/22 06:08:55;;;;;;;14.75;7.65;;;10.70;79.80;;;;;;5007969;28;80488;-74
2020/12/22 06:11:21;;;;;;;15.20;7.68;;;10.70;79.80;;;;;;5025610;28;80863;-74
2020/12/22 06:13:48;;;;;;;15.88;7.85;;;10.70;79.70;;;;;;5007324;28;82378;-73
2020/12/22 06:16:17;;;;;;;18.73;8.27;;;10.80;79.70;;;;;;5007090;28;82997;-75
2020/12/22 06:18:44;;;;;;;16.20;8.18;;;10.70;79.70;;;;;;5007394;28;82500;-72
2020/12/22 06:21:11;;;;;;;16.45;8.80;;;10.70;79.70;;;;;;5007148;28;80831;-73
2020/12/22 06:23:38;;;;;;;17.17;7.65;;;10.70;79.70;;;;;;5026299;28;80290;-73
2020/12/22 06:26:04;;;;;;;18.88;8.95;;;10.70;79.70;;;;;;5025947;28;80644;-72
2020/12/22 06:28:32;;;;;;;15.27;7.20;;;10.70;79.90;;;;;;5007971;28;80857;-73
2020/12/22 06:30:58;;;;;;;18.00;8.52;;;10.60;80.00;;;;;;5026351;28;80643;-78
2020/12/22 06:33:34;;;;;;;17.88;10.23;;;10.60;80.00;;;;;;5026047;28;80095;-74
2020/12/22 06:36:01;;;;;;;23.60;10.45;;;10.60;79.90;;;;;;5024128;28;83231;-82
2020/12/22 06:38:49;;;;;;;19.75;8.68;;;10.60;79.90;;;;;;5004999;28;85026;-72
2020/12/22 06:41:25;;;;;;;15.18;7.78;;;10.60;79.80;;;;;;5007977;28;80781;-78
2020/12/22 06:43:53;;;;;;;15.90;8.07;;;10.60;80.00;;;;;;5026502;28;79888;-74
2020/12/22 06:46:34;;;;;;;18.90;8.38;;;10.60;80.00;;;;;;5007999;28;83230;-81
2020/12/22 06:49:07;;;;;;;16.42;8.25;;;10.60;79.90;;;;;;5007905;28;82591;-75
2020/12/22 06:51:35;;;;;;;16.50;7.93;;;10.60;80.00;;;;;;5008475;28;80594;-71
2020/12/22 06:54:25;;;;;;;18.45;8.35;;;10.60;80.00;;;;;;5007962;28;80739;-78
2020/12/22 06:56:51;;;;;;;16.30;8.73;;;10.60;80.00;;;;;;5006282;28;82751;-80
2020/12/22 06:59:40;;;;;;;19.48;9.55;;;10.50;80.00;;;;;;5025914;28;79797;-80
2020/12/22 07:02:30;;;;;;;16.45;8.13;;;10.60;80.00;;;;;;4997162;28;80886;-80
2020/12/22 07:04:57;;;;;;;19.00;9.00;;;10.60;80.10;;;;;;5026520;28;80563;-76
2020/12/22 07:07:23;;;;;;;16.85;8.57;;;10.50;80.10;;;;;;5025977;28;79871;-75
2020/12/22 07:09:58;;;;;;;18.52;9.55;;;10.50;80.00;;;;;;5007275;28;80136;-73
2020/12/22 07:12:26;;;;;;;19.05;9.68;;;10.50;79.90;;;;;;5007688;28;81246;-70
2020/12/22 07:14:51;;;;;;;18.58;9.20;;;10.50;80.10;;;;;;5025727;28;80284;-70
2020/12/22 07:17:19;;;;;;;20.38;9.30;;;10.50;80.20;;;;;;5025461;28;80621;-71
2020/12/22 07:19:51;;;;;;;17.67;9.25;;;10.50;80.10;;;;;;5006979;28;82516;-71
2020/12/22 07:22:17;;;;;;;20.77;9.60;;;10.50;80.00;;;;;;5007810;28;80865;-78
2020/12/22 07:24:44;;;;;;;19.00;9.23;;;10.50;80.10;;;;;;5028935;28;81334;-68
2020/12/22 07:27:10;;;;;;;18.25;9.20;;;10.50;80.00;;;;;;5029144;28;80626;-67
2020/12/22 07:29:40;;;;;;;18.92;10.25;;;10.60;80.00;;;;;;5028990;28;81419;-66
2020/12/22 07:32:07;;;;;;;17.83;8.98;;;10.60;79.90;;;;;;5009059;28;84472;-66
2020/12/22 07:34:34;;;;;;;22.83;10.00;;;10.60;79.80;;;;;;5029056;28;82878;-67
2020/12/22 07:37:08;;;;;;;20.85;9.32;;;10.60;79.70;;;;;;5026721;28;83848;-67
2020/12/22 07:39:35;;;;;;;19.83;9.43;;;10.60;79.60;;;;;;5029358;28;83225;-67
2020/12/22 07:42:15;;;;;;;19.48;10.13;;;10.60;79.60;;;;;;5028768;28;80809;-66
2020/12/22 07:44:43;;;;;;;19.80;10.90;;;10.60;79.70;;;;;;5027060;28;82467;-66
2020/12/22 07:47:09;;;;;;;25.95;11.95;;;10.60;79.70;;;;;;5026477;28;83224;-66
2020/12/22 07:49:39;;;;;;;25.35;10.88;;;10.60;79.70;;;;;;5026253;28;82632;-66
2020/12/22 07:52:05;;;;;;;22.40;12.48;;;10.60;79.70;;;;;;5026089;28;83110;-66
2020/12/22 07:54:31;;;;;;;20.55;10.07;;;10.60;79.70;;;;;;5025710;28;83382;-66
2020/12/22 07:56:59;;;;;;;20.10;9.88;;;10.70;79.60;;;;;;5025057;28;84523;-67
2020/12/22 07:59:27;;;;;;;18.17;9.73;;;10.70;79.50;;;;;;5027933;28;83997;-68
2020/12/22 08:01:54;;;;;;;20.85;10.80;;;10.70;79.60;;;;;;5028899;28;80669;-67
2020/12/22 08:04:23;;;;;;;19.67;10.25;;;10.70;79.50;;;;;;5026106;28;82613;-67
2020/12/22 08:06:56;;;;;;;20.92;10.13;;;10.70;79.40;;;;;;5025953;28;82483;-67
2020/12/22 08:09:34;;;;;;;21.63;11.63;;;10.70;79.40;;;;;;5025606;28;82791;-67
2020/12/22 08:12:03;;;;;;;18.02;9.65;;;10.70;79.30;;;;;;5025507;28;83271;-65
2020/12/22 08:14:30;;;;;;;22.30;11.38;;;10.70;79.40;;;;;;5028675;28;81966;-67
2020/12/22 08:17:00;;;;;;;22.90;10.82;;;10.70;79.30;;;;;;5007758;28;83225;-66
2020/12/22 08:19:34;;;;;;;21.13;9.65;;;10.70;79.30;;;;;;5007358;28;85924;-68
2020/12/22 08:22:01;;;;;;;20.23;11.40;;;10.70;79.40;;;;;;5028151;28;80601;-65
2020/12/22 08:24:31;;;;;;;19.48;11.20;;;10.70;79.30;;;;;;5025840;28;82415;-69
2020/12/22 08:26:57;;;;;;;20.13;9.98;;;10.80;79.10;;;;;;5025246;28;83660;-68
2020/12/22 08:29:23;;;;;;;20.63;10.48;;;10.80;79.00;;;;;;5025526;28;82887;-69
2020/12/22 08:31:53;;;;;;;22.45;11.02;;;10.90;79.00;;;;;;5025485;28;83636;-67
2020/12/22 08:34:19;;;;;;;19.85;10.43;;;10.80;78.80;;;;;;5025458;28;82927;-76
2020/12/22 08:36:47;;;;;;;24.20;11.63;;;10.90;78.80;;;;;;5007131;28;86065;-71
2020/12/22 08:39:27;;;;;;;75.38;14.90;;;10.80;78.80;;;;;;5025481;28;82785;-71
2020/12/22 08:41:58;;;;;;;25.75;12.25;;;10.80;78.80;;;;;;5006764;28;86830;-72
2020/12/22 08:44:25;;;;;;;22.48;10.65;;;10.80;78.90;;;;;;5006543;28;85046;-72
2020/12/22 08:46:53;;;;;;;20.92;11.82;;;10.80;78.80;;;;;;5025382;28;82504;-72
2020/12/22 08:49:26;;;;;;;24.88;10.60;;;10.90;78.80;;;;;;5006584;28;85201;-70
2020/12/22 08:51:56;;;;;;;21.13;11.40;;;10.80;78.70;;;;;;5024817;28;83243;-73
2020/12/22 08:54:28;;;;;;;20.02;10.77;;;10.90;78.60;;;;;;5006741;28;85351;-72
2020/12/22 08:57:12;;;;;;;21.67;11.20;;;11.00;78.40;;;;;;5024499;28;83878;-73
2020/12/22 08:59:37;;;;;;;21.02;10.35;;;11.00;78.30;;;;;;5006598;28;85065;-72
2020/12/22 09:02:03;;;;;;;20.08;11.45;;;11.00;78.20;;;;;;5024824;28;83134;-72
2020/12/22 09:04:31;;;;;;;21.50;11.88;;;11.10;78.10;;;;;;5024989;28;82718;-72
2020/12/22 09:06:57;;;;;;;19.52;10.07;;;11.10;78.00;;;;;;5006533;28;85609;-72
2020/12/22 09:09:24;;;;;;;17.17;9.25;;;11.10;77.80;;;;;;5006939;28;85995;-71
2020/12/22 09:11:50;;;;;;;20.77;10.20;;;11.10;77.70;;;;;;5027202;28;79828;-73
2020/12/22 09:14:18;;;;;;;21.45;10.98;;;11.10;77.50;;;;;;5025107;28;82658;-70
2020/12/22 09:16:56;;;;;;;16.60;9.23;;;11.20;77.30;;;;;;5006389;28;84837;-71
2020/12/22 09:19:28;;;;;;;17.25;9.82;;;11.20;77.20;;;;;;5008794;28;84096;-71
2020/12/22 09:21:59;;;;;;;19.50;10.18;;;11.20;77.10;;;;;;5027528;28;79791;-72
2020/12/22 09:24:25;;;;;;;15.93;8.95;;;11.20;76.90;;;;;;5024503;28;82529;-73
2020/12/22 09:26:54;;;;;;;17.42;10.35;;;11.30;76.70;;;;;;5027342;28;80559;-67
2020/12/22 09:29:21;;;;;;;17.67;9.77;;;11.40;76.50;;;;;;5024919;28;82395;-67
2020/12/22 09:31:47;;;;;;;20.20;9.50;;;11.40;76.40;;;;;;5027135;28;80606;-64
2020/12/22 09:34:12;;;;;;;17.98;9.63;;;11.50;76.20;;;;;;5027344;28;80426;-70
2020/12/22 09:36:38;;;;;;;13.60;8.65;;;11.50;75.90;;;;;;5026686;28;80930;-70
2020/12/22 09:39:04;;;;;;;15.95;9.63;;;11.50;75.90;;;;;;5008369;28;81362;-70
2020/12/22 09:41:30;;;;;;;16.58;10.38;;;11.50;75.70;;;;;;5026338;28;80654;-68
2020/12/22 09:43:56;;;;;;;16.27;9.32;;;11.60;75.60;;;;;;5024705;28;82579;-70
2020/12/22 09:46:22;;;;;;;17.33;9.35;;;11.60;75.30;;;;;;5026485;28;80268;-69
2020/12/22 09:48:47;;;;;;;22.33;11.25;;;11.70;75.20;;;;;;4992150;28;83628;-70
2020/12/22 09:51:14;;;;;;;20.42;12.30;;;11.70;75.10;;;;;;4989448;28;86630;-70
2020/12/22 09:53:40;;;;;;;30.75;15.65;;;11.80;74.80;;;;;;5005028;28;84913;-69
2020/12/22 09:56:06;;;;;;;20.10;12.05;;;11.90;74.60;;;;;;5023944;28;83204;-70
2020/12/22 09:58:32;;;;;;;21.30;11.88;;;11.90;74.40;;;;;;5023986;28;83050;-69
2020/12/22 10:00:58;;;;;;;16.80;9.27;;;11.90;74.40;;;;;;5024239;28;83283;-70
2020/12/22 10:03:23;;;;;;;18.85;10.55;;;12.00;74.30;;;;;;5027266;28;81608;-69
2020/12/22 10:05:49;;;;;;;13.95;8.90;;;12.10;74.00;;;;;;5005514;28;83737;-67
2020/12/22 10:08:15;;;;;;;15.18;9.27;;;12.10;73.80;;;;;;5026979;28;82797;-70
2020/12/22 10:10:41;;;;;;;16.60;10.10;;;12.20;73.60;;;;;;5026595;28;81103;-68
2020/12/22 10:13:06;;;;;;;16.00;9.63;;;12.20;73.30;;;;;;5024557;28;82377;-68
2020/12/22 10:15:32;;;;;;;19.08;10.27;;;12.20;73.10;;;;;;5007979;28;83105;-69
2020/12/22 10:17:58;;;;;;;15.00;9.75;;;12.30;72.90;;;;;;5005980;28;82794;-69
2020/12/22 10:20:23;;;;;;;16.88;9.70;;;12.30;72.70;;;;;;5008500;28;80212;-69
2020/12/22 10:22:49;;;;;;;17.30;10.85;;;12.40;72.40;;;;;;5007763;28;82439;-70
2020/12/22 10:25:15;;;;;;;17.33;10.93;;;12.40;72.40;;;;;;5005890;28;84864;-69
2020/12/22 10:27:41;;;;;;;15.80;9.23;;;12.40;72.40;;;;;;5005666;28;85315;-70
2020/12/22 10:30:06;;;;;;;18.05;9.60;;;12.50;72.20;;;;;;5007841;28;81616;-70
2020/12/22 10:32:32;;;;;;;18.00;10.40;;;12.60;72.10;;;;;;5026835;28;79886;-71
2020/12/22 10:35:00;;;;;;;17.10;10.13;;;12.60;71.70;;;;;;5005557;28;84314;-71
2020/12/22 10:37:25;;;;;;;19.30;10.40;;;12.60;71.60;;;;;;5023892;28;83963;-71
2020/12/22 10:39:52;;;;;;;17.10;10.38;;;12.60;71.50;;;;;;5005861;28;86582;-69
2020/12/22 10:42:19;;;;;;;18.58;10.18;;;12.60;71.20;;;;;;5023996;28;83472;-68
2020/12/22 10:44:44;;;;;;;20.92;10.18;;;12.70;71.10;;;;;;5005543;28;85782;-69
2020/12/22 10:47:10;;;;;;;22.45;11.30;;;12.70;71.00;;;;;;5023900;28;83595;-71
2020/12/22 10:49:36;;;;;;;23.23;11.80;;;12.70;71.00;;;;;;5005646;28;85393;-69
2020/12/22 10:52:02;;;;;;;16.95;10.95;;;12.80;70.80;;;;;;5023369;28;83417;-70
2020/12/22 10:54:28;;;;;;;17.40;10.75;;;12.80;70.70;;;;;;5023636;28;83271;-72
2020/12/22 10:56:54;;;;;;;19.05;11.63;;;12.90;70.50;;;;;;5023216;28;84241;-67
2020/12/22 10:59:19;;;;;;;19.15;11.32;;;12.90;70.40;;;;;;5008763;28;86490;-71
2020/12/22 11:01:47;;;;;;;23.00;11.13;;;12.90;70.20;;;;;;5026966;28;83126;-70
2020/12/22 11:04:13;;;;;;;19.70;10.23;;;13.00;70.00;;;;;;5027176;28;83039;-72
2020/12/22 11:09:12;;;;;;;20.23;11.23;;;13.20;69.60;;;;;;5009372;28;83114;-70
2020/12/22 11:11:43;;;;;;;15.98;10.60;;;13.20;69.20;;;;;;5008978;28;85760;-69
2020/12/22 11:14:10;;;;;;;15.95;10.45;;;13.30;68.80;;;;;;5008557;28;82871;-71
2020/12/22 11:16:36;;;;;;;18.13;11.15;;;13.40;68.80;;;;;;5008661;28;83556;-72
2020/12/22 11:19:02;;;;;;;19.50;10.88;;;13.40;68.60;;;;;;5008482;28;85249;-70
2020/12/22 11:21:28;;;;;;;26.10;13.65;;;13.50;68.30;;;;;;5026408;28;82886;-68
2020/12/22 11:23:53;;;;;;;19.90;11.50;;;13.50;68.10;;;;;;5026820;28;83167;-71
2020/12/22 11:26:21;;;;;;;22.48;12.95;;;13.50;67.80;;;;;;5026062;28;84662;-72
2020/12/22 11:28:47;;;;;;;26.70;12.77;;;13.50;67.70;;;;;;5027003;28;83423;-72
2020/12/22 11:31:13;;;;;;;20.70;11.70;;;13.50;67.70;;;;;;5026453;28;84250;-73
2020/12/22 11:33:42;;;;;;;22.67;13.45;;;13.50;67.50;;;;;;5026999;28;83436;-71
2020/12/22 11:36:14;;;;;;;25.75;14.45;;;13.50;67.60;;;;;;5026582;28;82945;-72
2020/12/22 11:38:40;;;;;;;23.55;13.77;;;13.50;67.70;;;;;;5008095;28;84884;-71
2020/12/22 11:41:06;;;;;;;19.80;12.60;;;13.60;67.50;;;;;;5007946;28;85318;-71
2020/12/22 11:43:32;;;;;;;29.00;14.05;;;13.70;67.10;;;;;;5026337;28;83337;-72
2020/12/22 11:45:58;;;;;;;24.10;13.45;;;13.70;67.00;;;;;;5026724;28;82922;-71
2020/12/22 11:48:24;;;;;;;23.20;14.55;;;13.70;66.50;;;;;;5027102;28;82602;-70
2020/12/22 11:50:55;;;;;;;28.33;14.85;;;13.60;66.70;;;;;;5007803;28;85453;-69
2020/12/22 11:53:21;;;;;;;26.38;15.57;;;13.60;67.00;;;;;;5007665;28;83664;-68
2020/12/22 11:55:47;;;;;;;23.38;15.00;;;13.50;66.90;;;;;;5025964;28;82898;-68
2020/12/22 11:58:13;;;;;;;26.45;15.23;;;13.40;67.30;;;;;;5026622;28;83396;-67
2020/12/22 12:00:39;;;;;;;24.42;14.50;;;13.30;67.40;;;;;;5025877;28;82820;-69
2020/12/22 12:03:05;;;;;;;23.15;14.20;;;13.40;67.60;;;;;;5026371;28;82602;-70
2020/12/22 12:05:30;;;;;;;23.50;15.00;;;13.50;67.40;;;;;;5026166;28;82308;-69
2020/12/22 12:07:56;;;;;;;24.63;15.15;;;13.70;67.10;;;;;;5007619;28;84516;-69
2020/12/22 12:10:23;;;;;;;25.85;14.88;;;13.80;66.60;;;;;;5006830;28;83941;-70
2020/12/22 12:12:48;;;;;;;28.85;17.42;;;13.80;66.10;;;;;;5007281;28;86539;-70
2020/12/22 12:15:14;;;;;;;26.02;15.98;;;13.80;66.20;;;;;;5007792;28;83353;-70
2020/12/22 12:17:40;;;;;;;26.50;14.40;;;13.80;66.40;;;;;;5007948;28;86769;-73
2020/12/22 12:20:06;;;;;;;25.40;15.65;;;13.90;66.10;;;;;;5026351;28;82599;-69
2020/12/22 12:22:33;;;;;;;31.30;16.90;;;13.70;66.30;;;;;;5007206;28;84250;-70
2020/12/22 12:25:03;;;;;;;31.85;17.58;;;13.60;66.60;;;;;;5024883;28;83021;-67
2020/12/22 12:27:29;;;;;;;29.02;18.23;;;13.70;66.40;;;;;;5007552;28;82646;-69
2020/12/22 12:29:55;;;;;;;27.23;16.65;;;13.60;66.50;;;;;;5025755;28;82595;-69
2020/12/22 12:32:29;;;;;;;31.20;17.00;;;13.70;66.30;;;;;;5025670;28;83237;-68
2020/12/22 12:34:59;;;;;;;28.25;17.60;;;13.80;66.10;;;;;;5025962;28;82679;-69